This is the latest recevied weather packets stored in our database for station/object LRBS. If no packets are shown the sender has not sent any weather packets the latest 10 day(s).
| Time | Temp. | Humidity | Pressure | Rain* | Wind** | Luminosity | Snow |
|---|---|---|---|---|---|---|---|
| 1778052794 | 20° C | 53% | 1015 hPa | - | - | - | - |
| 1778051894 | 17.78° C | 52% | 1015 hPa | - | - | - | - |
| 1778050994 | 17.78° C | 52% | 1015 hPa | - | - | - | - |
| 1778050094 | 17.22° C | 56% | 1015 hPa | - | - | - | - |
| 1778049194 | 17.22° C | 56% | 1015 hPa | - | - | - | - |
| 1778048294 | 16.11° C | 59% | 1015 hPa | - | - | - | - |
| 1778047396 | 16.11° C | 59% | 1015 hPa | - | - | - | - |
| 1778046495 | 12.78° C | 67% | 1015 hPa | - | - | - | - |
| 1778045602 | 12.78° C | 67% | 1015 hPa | - | - | - | - |
| 1778044694 | 11.11° C | 77% | 1015 hPa | - | - | - | - |
| 1778043808 | 11.11° C | 77% | 1015 hPa | - | - | - | - |
| 1778042910 | 11.11° C | 77% | 1015 hPa | - | - | - | - |
| 1778041998 | 11.11° C | 77% | 1015 hPa | - | - | - | - |
| 1778041095 | 8.89° C | 87% | 1015 hPa | - | - | - | - |
| 1778040194 | 8.89° C | 87% | 1015 hPa | - | - | - | - |
| 1778039295 | 8.89° C | 82% | 1014 hPa | - | - | - | - |
| 1778038394 | 8.89° C | 82% | 1014 hPa | - | - | - | - |
| 1778037494 | 8.89° C | 87% | 1014 hPa | - | - | - | - |
| 1778036594 | 8.89° C | 87% | 1014 hPa | - | - | - | - |
| 1778035694 | 8.89° C | 87% | 1014 hPa | - | - | - | - |
| 1778034794 | 8.89° C | 87% | 1014 hPa | - | - | - | - |
| 1778033894 | 8.89° C | 87% | 1014 hPa | - | - | - | - |
| 1778032994 | 8.89° C | 87% | 1014 hPa | - | - | - | - |
| 1778032094 | 10° C | 88% | 1014 hPa | - | - | - | - |
| 1778031194 | 10° C | 88% | 1014 hPa | - | - | - | - |
* Rain since midnight (hover to see other rain measurements)
** Current wind speed in m/s (hover to see current wind gust speed)